Forest Hill, Texas
Current Conditions -  °F | °C
As of 12:55 AM on Friday 19 Dec 2014 (Local Time) from KFWS Reporting Station
Haze Haze  
Wind Chill: 44°   Ceiling: 1300
Heat Index: 47°   Visibility: 5mi
Dew Point: 44°   Wind: 7mph
Humidity: 90%   Direction: 20°NNE
Pressure: 30.17"   Gusts: NA
Location:  32.66°N, 97.27°W
Report Text: KFWS 190655Z AUTO 02006KT 5SM BR BKN013 OVC018 08/07 A3017 RMK AO2 T00830067
Loading
Personal Weather Stations






























Interactive Weather Map New forecast layout! Learn more

10-Day Weather Forecast

Advertisements
Track Severe Weather on mobile